CAL504 ZSPD-RCTP
Flight info
| Callsign | CAL504 |
|---|---|
| Flight time | 1h 24m |
| Altitude | 32000 |
| Route | MIG81D MIGOL B591 KASKA/N0512F320 L2 BERBA B591 BAKER BAKER1A |
| Aircraft | A359/H-SDE2E3GHIJ3J4J5LM1ORWXY/LB1D1 |
Departure
| Time | 2026-05-07 13:31 |
|---|---|
| Airport | Shanghai Pudong International Airport (ZSPD) |
Arrival
| Time | 2026-05-07 14:55 |
|---|---|
| Airport | Taiwan Taoyuan International Airport (RCTP) |
| Time | Latitude | Longitude | Altitude | Speed | Heading |
|---|---|---|---|---|---|
| 2026-05-07 13:23 | 31.15171 | 121.78016 | 26 ft | 0 kts | 252° |
| 2026-05-07 13:23 | 31.15166 | 121.78007 | 26 ft | 7 kts | 233° |
| 2026-05-07 13:23 | 31.15130 | 121.78042 | 26 ft | 5 kts | 94° |
| 2026-05-07 13:24 | 31.15142 | 121.78058 | 26 ft | 0 kts | 33° |
| 2026-05-07 13:24 | 31.15144 | 121.78059 | 26 ft | 1 kts | 31° |
| 2026-05-07 13:24 | 31.15169 | 121.78075 | 26 ft | 0 kts | 27° |
| 2026-05-07 13:25 | 31.15176 | 121.78081 | 26 ft | 3 kts | 39° |
| 2026-05-07 13:25 | 31.15182 | 121.78089 | 26 ft | 0 kts | 56° |
| 2026-05-07 13:25 | 31.15185 | 121.78095 | 26 ft | 0 kts | 58° |
| 2026-05-07 13:26 | 31.15222 | 121.78182 | 26 ft | 21 kts | 102° |
| 2026-05-07 13:26 | 31.15099 | 121.78270 | 27 ft | 32 kts | 160° |
| 2026-05-07 13:26 | 31.14823 | 121.78379 | 27 ft | 43 kts | 162° |
| 2026-05-07 13:27 | 31.14544 | 121.78488 | 27 ft | 40 kts | 163° |
| 2026-05-07 13:27 | 31.14177 | 121.78619 | 27 ft | 69 kts | 163° |
| 2026-05-07 13:27 | 31.13743 | 121.78785 | 27 ft | 65 kts | 162° |
| 2026-05-07 13:27 | 31.13314 | 121.78947 | 27 ft | 62 kts | 162° |
| 2026-05-07 13:28 | 31.12937 | 121.79092 | 27 ft | 53 kts | 163° |
| 2026-05-07 13:28 | 31.12615 | 121.79208 | 27 ft | 36 kts | 160° |
| 2026-05-07 13:28 | 31.12572 | 121.79403 | 26 ft | 28 kts | 72° |
| 2026-05-07 13:28 | 31.12634 | 121.79610 | 26 ft | 20 kts | 69° |
| 2026-05-07 13:29 | 31.12659 | 121.79718 | 26 ft | 0 kts | 76° |
| 2026-05-07 13:29 | 31.12660 | 121.79722 | 26 ft | 2 kts | 78° |
| 2026-05-07 13:29 | 31.12680 | 121.79825 | 26 ft | 7 kts | 84° |
| 2026-05-07 13:30 | 31.12719 | 121.79883 | 27 ft | 7 kts | 15° |
| 2026-05-07 13:30 | 31.12729 | 121.79881 | 26 ft | 0 kts | 349° |
| 2026-05-07 13:30 | 31.12843 | 121.79839 | 27 ft | 55 kts | 342° |
| 2026-05-07 13:31 | 31.13458 | 121.79609 | 27 ft | 124 kts | 342° |
| 2026-05-07 13:31 | 31.14446 | 121.79245 | 224 ft | 164 kts | 344° |
| 2026-05-07 13:31 | 31.15511 | 121.78777 | 896 ft | 168 kts | 327° |
| 2026-05-07 13:31 | 31.16353 | 121.77795 | 1368 ft | 181 kts | 294° |
| 2026-05-07 13:32 | 31.16519 | 121.76330 | 1939 ft | 190 kts | 256° |
| 2026-05-07 13:32 | 31.15852 | 121.74980 | 2432 ft | 204 kts | 219° |
| 2026-05-07 13:32 | 31.14542 | 121.74299 | 2927 ft | 219 kts | 184° |
| 2026-05-07 13:32 | 31.13020 | 121.74630 | 3433 ft | 235 kts | 150° |
| 2026-05-07 13:33 | 31.11815 | 121.75970 | 3943 ft | 251 kts | 118° |
| 2026-05-07 13:33 | 31.11171 | 121.77925 | 4533 ft | 265 kts | 110° |
| 2026-05-07 13:33 | 31.10195 | 121.79743 | 5284 ft | 272 kts | 137° |
| 2026-05-07 13:33 | 31.08618 | 121.80917 | 6150 ft | 273 kts | 156° |
| 2026-05-07 13:34 | 31.06838 | 121.81687 | 6988 ft | 277 kts | 162° |
| 2026-05-07 13:34 | 31.03142 | 121.83015 | 8607 ft | 284 kts | 163° |
| 2026-05-07 13:34 | 31.01257 | 121.83701 | 9405 ft | 287 kts | 162° |
| 2026-05-07 13:35 | 30.99364 | 121.84430 | 10184 ft | 291 kts | 160° |
| 2026-05-07 13:35 | 30.97503 | 121.85279 | 10943 ft | 294 kts | 158° |
| 2026-05-07 13:35 | 30.95614 | 121.86172 | 11694 ft | 297 kts | 158° |
| 2026-05-07 13:35 | 30.93680 | 121.87082 | 12441 ft | 301 kts | 159° |
| 2026-05-07 13:36 | 30.91708 | 121.87876 | 13169 ft | 304 kts | 162° |
| 2026-05-07 13:36 | 30.89700 | 121.88621 | 13879 ft | 307 kts | 162° |
| 2026-05-07 13:36 | 30.87669 | 121.89362 | 14570 ft | 310 kts | 162° |
| 2026-05-07 13:36 | 30.85611 | 121.90111 | 15244 ft | 313 kts | 162° |
| 2026-05-07 13:37 | 30.83610 | 121.91082 | 15754 ft | 322 kts | 146° |
| 2026-05-07 13:37 | 30.81998 | 121.92949 | 16046 ft | 336 kts | 121° |
| 2026-05-07 13:37 | 30.81181 | 121.95520 | 16332 ft | 350 kts | 96° |
| 2026-05-07 13:37 | 30.81388 | 121.98373 | 16620 ft | 363 kts | 73° |
| 2026-05-07 13:38 | 30.82183 | 122.01225 | 16991 ft | 375 kts | 71° |
| 2026-05-07 13:38 | 30.83032 | 122.04125 | 17502 ft | 381 kts | 71° |
| 2026-05-07 13:38 | 30.83873 | 122.07035 | 18098 ft | 385 kts | 71° |
| 2026-05-07 13:38 | 30.84720 | 122.10014 | 18704 ft | 388 kts | 71° |
| 2026-05-07 13:39 | 30.85561 | 122.13007 | 19289 ft | 391 kts | 71° |
| 2026-05-07 13:39 | 30.86400 | 122.16013 | 19857 ft | 395 kts | 72° |
| 2026-05-07 13:39 | 30.87240 | 122.19038 | 20414 ft | 398 kts | 72° |
| 2026-05-07 13:39 | 30.88089 | 122.22102 | 20964 ft | 401 kts | 72° |
| 2026-05-07 13:40 | 30.88960 | 122.25205 | 21505 ft | 405 kts | 70° |
| 2026-05-07 13:40 | 30.90089 | 122.28200 | 22034 ft | 408 kts | 62° |
| 2026-05-07 13:40 | 30.91595 | 122.31007 | 22553 ft | 411 kts | 53° |
| 2026-05-07 13:40 | 30.93387 | 122.33593 | 23064 ft | 414 kts | 49° |
| 2026-05-07 13:41 | 30.95282 | 122.36144 | 23560 ft | 417 kts | 49° |
| 2026-05-07 13:41 | 30.97175 | 122.38683 | 24033 ft | 420 kts | 50° |
| 2026-05-07 13:41 | 30.98810 | 122.41510 | 24466 ft | 424 kts | 64° |
| 2026-05-07 13:41 | 30.99766 | 122.44710 | 24892 ft | 426 kts | 78° |
| 2026-05-07 13:42 | 31.00038 | 122.48174 | 25331 ft | 429 kts | 89° |
| 2026-05-07 13:42 | 31.00043 | 122.51655 | 25773 ft | 431 kts | 90° |
| 2026-05-07 13:42 | 31.00012 | 122.55134 | 26179 ft | 434 kts | 90° |
| 2026-05-07 13:42 | 30.99986 | 122.58672 | 26578 ft | 437 kts | 90° |
| 2026-05-07 13:43 | 30.99971 | 122.62217 | 26964 ft | 439 kts | 90° |
| 2026-05-07 13:43 | 30.99964 | 122.65758 | 27339 ft | 442 kts | 90° |
| 2026-05-07 13:43 | 30.99962 | 122.69354 | 27707 ft | 444 kts | 90° |
| 2026-05-07 13:43 | 30.99962 | 122.72926 | 28061 ft | 447 kts | 90° |
| 2026-05-07 13:44 | 30.99964 | 122.76575 | 28410 ft | 449 kts | 90° |
| 2026-05-07 13:44 | 30.99966 | 122.80180 | 28743 ft | 451 kts | 90° |
| 2026-05-07 13:44 | 30.99968 | 122.83843 | 29070 ft | 454 kts | 90° |
| 2026-05-07 13:44 | 30.99967 | 122.87516 | 29388 ft | 456 kts | 90° |
| 2026-05-07 13:45 | 30.99963 | 122.91231 | 29699 ft | 458 kts | 90° |
| 2026-05-07 13:45 | 30.99838 | 122.94920 | 29992 ft | 460 kts | 95° |
| 2026-05-07 13:45 | 30.99451 | 122.98642 | 30278 ft | 462 kts | 99° |
| 2026-05-07 13:45 | 30.98808 | 123.02272 | 30554 ft | 464 kts | 104° |
| 2026-05-07 13:46 | 30.97896 | 123.05883 | 30825 ft | 466 kts | 109° |
| 2026-05-07 13:46 | 30.96764 | 123.09412 | 31092 ft | 468 kts | 111° |
| 2026-05-07 13:46 | 30.95558 | 123.12972 | 31355 ft | 470 kts | 111° |
| 2026-05-07 13:46 | 30.94342 | 123.16522 | 31607 ft | 472 kts | 111° |
| 2026-05-07 13:47 | 30.93131 | 123.20055 | 31850 ft | 473 kts | 111° |
| 2026-05-07 13:47 | 30.91916 | 123.23608 | 31992 ft | 475 kts | 111° |
| 2026-05-07 13:47 | 30.90697 | 123.27182 | 31996 ft | 475 kts | 111° |
| 2026-05-07 13:48 | 30.88277 | 123.34280 | 32003 ft | 475 kts | 111° |
| 2026-05-07 13:48 | 30.85853 | 123.41387 | 32004 ft | 475 kts | 111° |
| 2026-05-07 13:49 | 30.83425 | 123.48503 | 32005 ft | 475 kts | 111° |
| 2026-05-07 13:49 | 30.80982 | 123.55631 | 32005 ft | 475 kts | 111° |
| 2026-05-07 13:50 | 30.77627 | 123.62183 | 31998 ft | 475 kts | 131° |
| 2026-05-07 13:50 | 30.75253 | 123.64812 | 31998 ft | 475 kts | 142° |
| 2026-05-07 13:50 | 30.72519 | 123.66905 | 32001 ft | 475 kts | 152° |
| 2026-05-07 13:50 | 30.69470 | 123.68417 | 32004 ft | 475 kts | 163° |
| 2026-05-07 13:51 | 30.66267 | 123.69254 | 32006 ft | 475 kts | 173° |
| 2026-05-07 13:51 | 30.59717 | 123.69395 | 32007 ft | 475 kts | 181° |
| 2026-05-07 13:52 | 30.53119 | 123.69340 | 32005 ft | 475 kts | 180° |
| 2026-05-07 13:52 | 30.46539 | 123.69327 | 32005 ft | 475 kts | 180° |
| 2026-05-07 13:53 | 30.39976 | 123.69321 | 32005 ft | 475 kts | 180° |
| 2026-05-07 13:53 | 30.33396 | 123.69318 | 32005 ft | 475 kts | 180° |
| 2026-05-07 13:54 | 30.26815 | 123.69318 | 32005 ft | 475 kts | 180° |
| 2026-05-07 13:54 | 30.20237 | 123.69319 | 32005 ft | 475 kts | 180° |
| 2026-05-07 13:55 | 30.13669 | 123.69321 | 32005 ft | 475 kts | 180° |
| 2026-05-07 13:55 | 30.07098 | 123.69323 | 32005 ft | 475 kts | 180° |
| 2026-05-07 13:56 | 30.00527 | 123.69325 | 32005 ft | 475 kts | 180° |
| 2026-05-07 13:56 | 29.93949 | 123.69327 | 32005 ft | 475 kts | 180° |
| 2026-05-07 13:57 | 29.87374 | 123.69331 | 32005 ft | 475 kts | 180° |
| 2026-05-07 13:57 | 29.80775 | 123.69334 | 32005 ft | 475 kts | 180° |
| 2026-05-07 13:58 | 29.74216 | 123.69340 | 32005 ft | 475 kts | 180° |
| 2026-05-07 13:58 | 29.67642 | 123.69346 | 32005 ft | 475 kts | 180° |
| 2026-05-07 13:59 | 29.61070 | 123.69350 | 32005 ft | 475 kts | 180° |
| 2026-05-07 13:59 | 29.54454 | 123.69353 | 32005 ft | 475 kts | 180° |
| 2026-05-07 14:00 | 29.47886 | 123.69357 | 32005 ft | 475 kts | 180° |
| 2026-05-07 14:00 | 29.41310 | 123.69359 | 32005 ft | 475 kts | 180° |
| 2026-05-07 14:01 | 29.34725 | 123.69362 | 32005 ft | 475 kts | 180° |
| 2026-05-07 14:01 | 29.28181 | 123.69365 | 32005 ft | 475 kts | 180° |
| 2026-05-07 14:02 | 29.21604 | 123.69368 | 32005 ft | 475 kts | 180° |
| 2026-05-07 14:02 | 29.15023 | 123.69370 | 32005 ft | 475 kts | 180° |
| 2026-05-07 14:03 | 29.08437 | 123.69373 | 32005 ft | 475 kts | 180° |
| 2026-05-07 14:03 | 29.01853 | 123.69378 | 32005 ft | 475 kts | 180° |
| 2026-05-07 14:04 | 28.95269 | 123.69385 | 32005 ft | 475 kts | 180° |
| 2026-05-07 14:04 | 28.88688 | 123.69393 | 32005 ft | 475 kts | 180° |
| 2026-05-07 14:05 | 28.82122 | 123.69402 | 32005 ft | 475 kts | 180° |
| 2026-05-07 14:05 | 28.75560 | 123.69087 | 32005 ft | 475 kts | 186° |
| 2026-05-07 14:06 | 28.69052 | 123.68000 | 32006 ft | 475 kts | 192° |
| 2026-05-07 14:06 | 28.62700 | 123.66146 | 32006 ft | 475 kts | 198° |
| 2026-05-07 14:07 | 28.56487 | 123.63589 | 32005 ft | 475 kts | 201° |
| 2026-05-07 14:07 | 28.50377 | 123.60925 | 32005 ft | 475 kts | 201° |
| 2026-05-07 14:08 | 28.44207 | 123.58246 | 32005 ft | 475 kts | 201° |
| 2026-05-07 14:08 | 28.38065 | 123.55586 | 32005 ft | 475 kts | 201° |
| 2026-05-07 14:09 | 28.31935 | 123.52937 | 32005 ft | 475 kts | 201° |
| 2026-05-07 14:09 | 28.25765 | 123.50275 | 32005 ft | 475 kts | 201° |
| 2026-05-07 14:10 | 28.19626 | 123.47629 | 32005 ft | 475 kts | 201° |
| 2026-05-07 14:10 | 28.13495 | 123.44991 | 32005 ft | 475 kts | 201° |
| 2026-05-07 14:11 | 28.07345 | 123.42348 | 32005 ft | 475 kts | 201° |
| 2026-05-07 14:11 | 28.01178 | 123.39703 | 32005 ft | 475 kts | 201° |
| 2026-05-07 14:12 | 27.95015 | 123.37064 | 32005 ft | 475 kts | 201° |
| 2026-05-07 14:12 | 27.88881 | 123.34433 | 32005 ft | 475 kts | 200° |
| 2026-05-07 14:13 | 27.82719 | 123.31772 | 32005 ft | 475 kts | 200° |
| 2026-05-07 14:13 | 27.76558 | 123.29127 | 32005 ft | 475 kts | 200° |
| 2026-05-07 14:14 | 27.70428 | 123.26508 | 32005 ft | 475 kts | 200° |
| 2026-05-07 14:14 | 27.64260 | 123.23880 | 32005 ft | 475 kts | 200° |
| 2026-05-07 14:15 | 27.58098 | 123.21260 | 32005 ft | 475 kts | 200° |
| 2026-05-07 14:15 | 27.51941 | 123.18648 | 32005 ft | 475 kts | 200° |
| 2026-05-07 14:16 | 27.45798 | 123.16042 | 32005 ft | 475 kts | 200° |
| 2026-05-07 14:16 | 27.39666 | 123.13434 | 32005 ft | 475 kts | 200° |
| 2026-05-07 14:17 | 27.33509 | 123.10820 | 32005 ft | 475 kts | 200° |
| 2026-05-07 14:17 | 27.27338 | 123.08212 | 32005 ft | 475 kts | 200° |
| 2026-05-07 14:18 | 27.21164 | 123.05611 | 32005 ft | 475 kts | 200° |
| 2026-05-07 14:18 | 27.15008 | 123.03006 | 32004 ft | 475 kts | 201° |
| 2026-05-07 14:19 | 27.09028 | 122.99989 | 32004 ft | 475 kts | 207° |
| 2026-05-07 14:19 | 27.03309 | 122.96299 | 32004 ft | 475 kts | 213° |
| 2026-05-07 14:20 | 26.97914 | 122.92095 | 32005 ft | 475 kts | 215° |
| 2026-05-07 14:20 | 26.92575 | 122.87841 | 32005 ft | 475 kts | 215° |
| 2026-05-07 14:21 | 26.88321 | 122.84463 | 32005 ft | 475 kts | 215° |
| 2026-05-07 14:22 | 26.73416 | 122.72697 | 32005 ft | 475 kts | 215° |
| 2026-05-07 14:23 | 26.68018 | 122.68433 | 32005 ft | 475 kts | 215° |
| 2026-05-07 14:23 | 26.62643 | 122.64180 | 32005 ft | 475 kts | 215° |
| 2026-05-07 14:24 | 26.57264 | 122.59930 | 32005 ft | 475 kts | 215° |
| 2026-05-07 14:24 | 26.51912 | 122.55711 | 32005 ft | 475 kts | 215° |
| 2026-05-07 14:25 | 26.46511 | 122.51460 | 32005 ft | 475 kts | 215° |
| 2026-05-07 14:25 | 26.41126 | 122.47227 | 32005 ft | 475 kts | 215° |
| 2026-05-07 14:26 | 26.35781 | 122.43032 | 31960 ft | 475 kts | 215° |
| 2026-05-07 14:26 | 26.33049 | 122.40890 | 31480 ft | 477 kts | 215° |
| 2026-05-07 14:26 | 26.30388 | 122.38805 | 30920 ft | 474 kts | 215° |
| 2026-05-07 14:26 | 26.27702 | 122.36703 | 30442 ft | 470 kts | 215° |
| 2026-05-07 14:27 | 26.25067 | 122.34641 | 30005 ft | 465 kts | 215° |
| 2026-05-07 14:27 | 26.22429 | 122.32567 | 29576 ft | 459 kts | 215° |
| 2026-05-07 14:27 | 26.19839 | 122.30529 | 29161 ft | 454 kts | 215° |
| 2026-05-07 14:27 | 26.17292 | 122.28532 | 28753 ft | 449 kts | 215° |
| 2026-05-07 14:28 | 26.14747 | 122.26541 | 28346 ft | 444 kts | 215° |
| 2026-05-07 14:28 | 26.12232 | 122.24584 | 27945 ft | 440 kts | 214° |
| 2026-05-07 14:28 | 26.09744 | 122.22665 | 27548 ft | 435 kts | 214° |
| 2026-05-07 14:28 | 26.07282 | 122.20775 | 27156 ft | 431 kts | 214° |
| 2026-05-07 14:29 | 26.04836 | 122.18900 | 26762 ft | 427 kts | 214° |
| 2026-05-07 14:29 | 26.02426 | 122.17056 | 26374 ft | 423 kts | 214° |
| 2026-05-07 14:29 | 26.00003 | 122.15203 | 25983 ft | 419 kts | 214° |
| 2026-05-07 14:29 | 25.97611 | 122.13374 | 25596 ft | 415 kts | 214° |
| 2026-05-07 14:30 | 25.95271 | 122.11588 | 25217 ft | 412 kts | 214° |
| 2026-05-07 14:30 | 25.92912 | 122.09787 | 24834 ft | 409 kts | 214° |
| 2026-05-07 14:30 | 25.90583 | 122.08010 | 24455 ft | 405 kts | 214° |
| 2026-05-07 14:30 | 25.88296 | 122.06271 | 24082 ft | 402 kts | 214° |
| 2026-05-07 14:31 | 25.85980 | 122.04516 | 23705 ft | 399 kts | 214° |
| 2026-05-07 14:31 | 25.83732 | 122.02812 | 23338 ft | 396 kts | 214° |
| 2026-05-07 14:31 | 25.81449 | 122.01080 | 22964 ft | 393 kts | 214° |
| 2026-05-07 14:31 | 25.79206 | 121.99376 | 22597 ft | 391 kts | 214° |
| 2026-05-07 14:32 | 25.76983 | 121.97687 | 22232 ft | 388 kts | 214° |
| 2026-05-07 14:32 | 25.74780 | 121.96011 | 21870 ft | 385 kts | 214° |
| 2026-05-07 14:32 | 25.72584 | 121.94341 | 21508 ft | 383 kts | 214° |
| 2026-05-07 14:32 | 25.70416 | 121.92677 | 21146 ft | 380 kts | 215° |
| 2026-05-07 14:33 | 25.68235 | 121.90994 | 20783 ft | 378 kts | 215° |
| 2026-05-07 14:33 | 25.66155 | 121.89300 | 20423 ft | 376 kts | 220° |
| 2026-05-07 14:33 | 25.64300 | 121.87277 | 20058 ft | 373 kts | 230° |
| 2026-05-07 14:33 | 25.62776 | 121.84969 | 19693 ft | 371 kts | 238° |
| 2026-05-07 14:34 | 25.61465 | 121.82489 | 19334 ft | 369 kts | 240° |
| 2026-05-07 14:34 | 25.60231 | 121.80047 | 18982 ft | 367 kts | 241° |
| 2026-05-07 14:34 | 25.58989 | 121.77583 | 18626 ft | 365 kts | 241° |
| 2026-05-07 14:34 | 25.57751 | 121.75146 | 18275 ft | 363 kts | 240° |
| 2026-05-07 14:35 | 25.56510 | 121.72715 | 17922 ft | 361 kts | 240° |
| 2026-05-07 14:35 | 25.55278 | 121.70312 | 17573 ft | 359 kts | 240° |
| 2026-05-07 14:35 | 25.54049 | 121.67921 | 17225 ft | 357 kts | 240° |
| 2026-05-07 14:35 | 25.52827 | 121.65547 | 16878 ft | 356 kts | 240° |
| 2026-05-07 14:36 | 25.51609 | 121.63181 | 16532 ft | 354 kts | 240° |
| 2026-05-07 14:36 | 25.50390 | 121.60815 | 16185 ft | 352 kts | 240° |
| 2026-05-07 14:36 | 25.49126 | 121.58527 | 15842 ft | 350 kts | 237° |
| 2026-05-07 14:36 | 25.47730 | 121.56356 | 15500 ft | 349 kts | 232° |
| 2026-05-07 14:37 | 25.46184 | 121.54275 | 15155 ft | 347 kts | 229° |
| 2026-05-07 14:37 | 25.43044 | 121.50281 | 14475 ft | 344 kts | 229° |
| 2026-05-07 14:37 | 25.41484 | 121.48296 | 14137 ft | 342 kts | 229° |
| 2026-05-07 14:38 | 25.39940 | 121.46323 | 13801 ft | 341 kts | 229° |
| 2026-05-07 14:38 | 25.38383 | 121.44331 | 13461 ft | 339 kts | 229° |
| 2026-05-07 14:38 | 25.36854 | 121.42374 | 13125 ft | 337 kts | 229° |
| 2026-05-07 14:38 | 25.35321 | 121.40414 | 12789 ft | 335 kts | 229° |
| 2026-05-07 14:39 | 25.33816 | 121.38492 | 12458 ft | 334 kts | 229° |
| 2026-05-07 14:39 | 25.32297 | 121.36552 | 12124 ft | 332 kts | 229° |
| 2026-05-07 14:39 | 25.30792 | 121.34633 | 11793 ft | 330 kts | 229° |
| 2026-05-07 14:39 | 25.29315 | 121.32739 | 11465 ft | 328 kts | 229° |
| 2026-05-07 14:40 | 25.27820 | 121.30821 | 11134 ft | 326 kts | 229° |
| 2026-05-07 14:40 | 25.26347 | 121.28936 | 10807 ft | 324 kts | 229° |
| 2026-05-07 14:40 | 25.24897 | 121.27084 | 10486 ft | 322 kts | 229° |
| 2026-05-07 14:40 | 25.23435 | 121.25221 | 10263 ft | 316 kts | 229° |
| 2026-05-07 14:41 | 25.22032 | 121.23434 | 10212 ft | 303 kts | 229° |
| 2026-05-07 14:41 | 25.20689 | 121.21721 | 10154 ft | 291 kts | 229° |
| 2026-05-07 14:41 | 25.19381 | 121.20052 | 10098 ft | 279 kts | 229° |
| 2026-05-07 14:41 | 25.18141 | 121.18471 | 10047 ft | 273 kts | 229° |
| 2026-05-07 14:42 | 25.16903 | 121.16894 | 9911 ft | 273 kts | 229° |
| 2026-05-07 14:42 | 25.15655 | 121.15307 | 9634 ft | 272 kts | 229° |
| 2026-05-07 14:42 | 25.14419 | 121.13738 | 9375 ft | 271 kts | 229° |
| 2026-05-07 14:42 | 25.13193 | 121.12182 | 9123 ft | 269 kts | 229° |
| 2026-05-07 14:43 | 25.11972 | 121.10632 | 8953 ft | 264 kts | 229° |
| 2026-05-07 14:43 | 25.10773 | 121.09108 | 8804 ft | 262 kts | 229° |
| 2026-05-07 14:43 | 25.09582 | 121.07594 | 8568 ft | 261 kts | 229° |
| 2026-05-07 14:43 | 25.08401 | 121.06094 | 8331 ft | 260 kts | 229° |
| 2026-05-07 14:44 | 25.07222 | 121.04598 | 8094 ft | 259 kts | 229° |
| 2026-05-07 14:44 | 25.06031 | 121.03086 | 7855 ft | 258 kts | 229° |
| 2026-05-07 14:44 | 25.04871 | 121.01614 | 7621 ft | 256 kts | 229° |
| 2026-05-07 14:44 | 25.03701 | 121.00130 | 7386 ft | 254 kts | 229° |
| 2026-05-07 14:45 | 25.02547 | 120.98666 | 7154 ft | 253 kts | 229° |
| 2026-05-07 14:45 | 25.01396 | 120.97205 | 6922 ft | 251 kts | 229° |
| 2026-05-07 14:45 | 25.00258 | 120.95763 | 6694 ft | 250 kts | 229° |
| 2026-05-07 14:45 | 24.99118 | 120.94318 | 6465 ft | 248 kts | 229° |
| 2026-05-07 14:46 | 24.97989 | 120.92889 | 6238 ft | 247 kts | 229° |
| 2026-05-07 14:46 | 24.96877 | 120.91481 | 6014 ft | 245 kts | 229° |
| 2026-05-07 14:46 | 24.95755 | 120.90063 | 5789 ft | 244 kts | 229° |
| 2026-05-07 14:46 | 24.94643 | 120.88656 | 5566 ft | 243 kts | 229° |
| 2026-05-07 14:47 | 24.93429 | 120.87376 | 5310 ft | 244 kts | 211° |
| 2026-05-07 14:47 | 24.91849 | 120.86794 | 5070 ft | 242 kts | 183° |
| 2026-05-07 14:47 | 24.90192 | 120.87074 | 4823 ft | 242 kts | 156° |
| 2026-05-07 14:47 | 24.88847 | 120.88132 | 4584 ft | 241 kts | 130° |
| 2026-05-07 14:48 | 24.88062 | 120.89749 | 4345 ft | 240 kts | 103° |
| 2026-05-07 14:48 | 24.88009 | 120.91544 | 4113 ft | 239 kts | 77° |
| 2026-05-07 14:48 | 24.88697 | 120.93213 | 3875 ft | 238 kts | 51° |
| 2026-05-07 14:48 | 24.89964 | 120.94355 | 3643 ft | 237 kts | 27° |
| 2026-05-07 14:49 | 24.91441 | 120.95157 | 3416 ft | 237 kts | 30° |
| 2026-05-07 14:49 | 24.92695 | 120.96318 | 3149 ft | 238 kts | 54° |
| 2026-05-07 14:49 | 24.93335 | 120.97964 | 2906 ft | 238 kts | 78° |
| 2026-05-07 14:49 | 24.93619 | 120.99756 | 2688 ft | 237 kts | 82° |
| 2026-05-07 14:50 | 24.93836 | 121.01508 | 2624 ft | 218 kts | 83° |
| 2026-05-07 14:50 | 24.94015 | 121.03082 | 2620 ft | 195 kts | 83° |
| 2026-05-07 14:50 | 24.94172 | 121.04479 | 2576 ft | 173 kts | 83° |
| 2026-05-07 14:50 | 24.94314 | 121.05714 | 2522 ft | 156 kts | 83° |
| 2026-05-07 14:51 | 24.94452 | 121.06898 | 2500 ft | 155 kts | 82° |
| 2026-05-07 14:51 | 24.94769 | 121.08038 | 2499 ft | 155 kts | 60° |
| 2026-05-07 14:51 | 24.95398 | 121.08987 | 2505 ft | 155 kts | 49° |
| 2026-05-07 14:51 | 24.96143 | 121.09868 | 2505 ft | 155 kts | 46° |
| 2026-05-07 14:52 | 24.96882 | 121.10724 | 2503 ft | 155 kts | 47° |
| 2026-05-07 14:52 | 24.97612 | 121.11597 | 2502 ft | 155 kts | 48° |
| 2026-05-07 14:52 | 24.98335 | 121.12492 | 2421 ft | 156 kts | 49° |
| 2026-05-07 14:52 | 24.99047 | 121.13390 | 2227 ft | 154 kts | 49° |
| 2026-05-07 14:53 | 24.99752 | 121.14288 | 2027 ft | 154 kts | 49° |
| 2026-05-07 14:53 | 25.00446 | 121.15172 | 1828 ft | 154 kts | 49° |
| 2026-05-07 14:53 | 25.01146 | 121.16065 | 1625 ft | 153 kts | 49° |
| 2026-05-07 14:53 | 25.01845 | 121.16956 | 1421 ft | 153 kts | 49° |
| 2026-05-07 14:54 | 25.02536 | 121.17834 | 1217 ft | 152 kts | 49° |
| 2026-05-07 14:54 | 25.03235 | 121.18724 | 1011 ft | 152 kts | 49° |
| 2026-05-07 14:54 | 25.03918 | 121.19592 | 811 ft | 152 kts | 49° |
| 2026-05-07 14:54 | 25.04609 | 121.20473 | 609 ft | 151 kts | 49° |
| 2026-05-07 14:55 | 25.05301 | 121.21353 | 409 ft | 151 kts | 49° |
| 2026-05-07 14:55 | 25.05984 | 121.22221 | 207 ft | 152 kts | 49° |
| 2026-05-07 14:55 | 25.06651 | 121.23074 | 119 ft | 135 kts | 50° |
| 2026-05-07 14:55 | 25.07079 | 121.23614 | 119 ft | 45 kts | 47° |
| 2026-05-07 14:56 | 25.07356 | 121.23762 | 119 ft | 44 kts | 17° |
| 2026-05-07 14:56 | 25.07602 | 121.23712 | 119 ft | 30 kts | 339° |
| 2026-05-07 14:56 | 25.07755 | 121.23677 | 119 ft | 5 kts | 327° |
| 2026-05-07 14:56 | 25.07773 | 121.23664 | 119 ft | 0 kts | 325° |